createdAt,value
2019-03-24T00:02:28.058Z,99.90
2019-03-24T00:04:56.046Z,99.90
2019-03-24T00:07:24.770Z,99.90
2019-03-24T00:09:52.528Z,99.90
2019-03-24T00:12:20.331Z,99.90
2019-03-24T00:14:48.221Z,99.90
2019-03-24T00:17:15.909Z,99.90
2019-03-24T00:19:43.518Z,99.90
2019-03-24T00:22:11.284Z,99.90
2019-03-24T00:24:38.949Z,99.90
2019-03-24T00:27:06.871Z,99.90
2019-03-24T00:29:34.495Z,99.90
2019-03-24T00:32:02.733Z,99.90
2019-03-24T00:34:30.553Z,99.90
2019-03-24T00:36:58.112Z,99.90
2019-03-24T00:39:26.199Z,99.90
2019-03-24T00:41:53.801Z,99.90
2019-03-24T00:44:21.590Z,99.90
2019-03-24T00:46:49.586Z,99.90
2019-03-24T00:49:17.151Z,99.90
2019-03-24T00:51:44.814Z,99.90
2019-03-24T00:54:12.575Z,99.90
2019-03-24T00:56:40.207Z,99.90
2019-03-24T00:59:07.900Z,99.90
2019-03-24T01:01:36.607Z,99.90
2019-03-24T01:04:04.368Z,99.90
2019-03-24T01:06:32.421Z,99.90
2019-03-24T01:09:00.273Z,99.90
2019-03-24T01:11:28.315Z,99.90
2019-03-24T01:13:56.314Z,99.90
2019-03-24T01:16:24.123Z,99.90
2019-03-24T01:18:51.777Z,99.90
2019-03-24T01:21:19.581Z,99.90
2019-03-24T01:23:47.140Z,99.90
2019-03-24T01:26:15.044Z,99.90
2019-03-24T01:28:42.874Z,99.90
2019-03-24T01:31:10.563Z,99.90
2019-03-24T01:33:38.229Z,99.90
2019-03-24T01:36:05.976Z,99.90
2019-03-24T01:38:33.755Z,99.90
2019-03-24T01:41:01.416Z,99.90
2019-03-24T01:43:29.232Z,99.90
2019-03-24T01:45:58.745Z,99.90
2019-03-24T01:48:26.862Z,99.90
2019-03-24T01:50:54.654Z,99.90
2019-03-24T01:53:22.347Z,99.90
2019-03-24T01:55:50.130Z,99.90
2019-03-24T01:58:17.686Z,99.90
2019-03-24T02:00:45.395Z,99.90
2019-03-24T02:03:14.069Z,99.90
2019-03-24T02:05:41.673Z,99.90
2019-03-24T02:08:09.278Z,99.90
2019-03-24T02:10:36.904Z,99.90
2019-03-24T02:13:04.799Z,99.90
2019-03-24T02:15:32.683Z,99.90
2019-03-24T02:18:00.266Z,99.90
2019-03-24T02:20:27.906Z,99.90
2019-03-24T02:22:55.684Z,99.90
2019-03-24T02:25:23.393Z,99.90
2019-03-24T02:27:51.298Z,99.90
2019-03-24T02:30:19.098Z,99.90
2019-03-24T02:32:47.002Z,99.90
2019-03-24T02:35:14.805Z,99.90
2019-03-24T02:37:42.588Z,99.90
2019-03-24T02:40:10.485Z,99.90
2019-03-24T02:42:38.175Z,99.90
2019-03-24T02:45:06.907Z,99.90
2019-03-24T02:47:35.773Z,99.90
2019-03-24T02:50:03.780Z,99.90
2019-03-24T02:52:31.487Z,99.90
2019-03-24T02:54:59.409Z,99.90
2019-03-24T02:57:27.427Z,99.90
2019-03-24T02:59:55.097Z,99.90
2019-03-24T03:02:22.819Z,99.90
2019-03-24T03:04:50.645Z,99.90
2019-03-24T03:07:18.424Z,99.90
2019-03-24T03:09:46.147Z,99.90
2019-03-24T03:12:14.013Z,99.90
2019-03-24T03:14:41.797Z,99.90
2019-03-24T03:17:09.873Z,99.90
2019-03-24T03:19:38.632Z,99.90
2019-03-24T03:22:06.325Z,99.90
2019-03-24T03:24:34.161Z,99.90
2019-03-24T03:27:01.883Z,99.90
2019-03-24T03:29:29.680Z,99.90
2019-03-24T03:31:57.652Z,99.90
2019-03-24T03:34:25.351Z,99.90
2019-03-24T03:36:53.155Z,99.90
2019-03-24T03:39:20.939Z,99.90
2019-03-24T03:41:48.767Z,99.90
2019-03-24T03:44:16.396Z,99.90
2019-03-24T03:46:52.653Z,99.90
2019-03-24T03:49:14.204Z,99.90
2019-03-24T03:51:42.238Z,99.90
2019-03-24T03:54:10.203Z,99.90
2019-03-24T03:56:38.938Z,99.90
2019-03-24T03:59:06.702Z,99.90
2019-03-24T04:01:34.425Z,99.90
2019-03-24T04:04:02.234Z,99.90
2019-03-24T04:06:30.321Z,99.90
2019-03-24T04:08:58.357Z,99.90
2019-03-24T04:11:26.144Z,99.90
2019-03-24T04:13:54.032Z,99.90
2019-03-24T04:16:21.719Z,99.90
2019-03-24T04:18:49.840Z,99.90
2019-03-24T04:21:17.809Z,99.90
2019-03-24T04:23:48.021Z,99.90
2019-03-24T04:26:15.795Z,99.90
2019-03-24T04:28:43.813Z,99.90
2019-03-24T04:31:11.903Z,99.90
2019-03-24T04:33:40.792Z,99.90
2019-03-24T04:36:08.274Z,99.90
2019-03-24T04:38:35.712Z,99.90
2019-03-24T04:41:03.285Z,99.90
2019-03-24T04:43:30.721Z,99.90
2019-03-24T04:45:58.165Z,99.90
2019-03-24T04:48:25.571Z,99.90
2019-03-24T04:50:52.970Z,99.90
2019-03-24T04:53:20.869Z,99.90
2019-03-24T04:55:48.492Z,99.90
2019-03-24T04:58:15.963Z,99.90
2019-03-24T05:00:43.446Z,99.90
2019-03-24T05:03:11.025Z,99.90
2019-03-24T05:05:39.061Z,99.90
2019-03-24T05:08:08.386Z,99.90
2019-03-24T05:10:35.829Z,99.90
2019-03-24T05:13:03.505Z,99.90
2019-03-24T05:15:30.962Z,99.90
2019-03-24T05:17:58.501Z,99.90
2019-03-24T05:20:26.255Z,99.90
2019-03-24T05:22:53.771Z,99.90
2019-03-24T05:25:21.185Z,99.90
2019-03-24T05:27:48.737Z,99.90
2019-03-24T05:30:16.176Z,99.90
2019-03-24T05:32:43.618Z,99.90
2019-03-24T05:35:11.152Z,99.90
2019-03-24T05:37:38.573Z,99.90
2019-03-24T05:40:06.123Z,99.90
2019-03-24T05:42:34.845Z,99.90
2019-03-24T05:45:03.649Z,99.90
2019-03-24T05:47:37.064Z,99.90
2019-03-24T05:50:00.756Z,99.90
2019-03-24T05:52:28.399Z,99.90
2019-03-24T05:54:55.958Z,99.90
2019-03-24T05:57:23.798Z,99.90
2019-03-24T05:59:51.899Z,99.90
2019-03-24T06:02:19.700Z,99.90
2019-03-24T06:04:47.284Z,99.90
2019-03-24T06:07:15.043Z,99.90
2019-03-24T06:09:42.850Z,99.90
2019-03-24T06:12:10.655Z,99.90
2019-03-24T06:14:38.441Z,99.90
2019-03-24T06:17:06.268Z,99.90
2019-03-24T06:19:33.937Z,99.90
2019-03-24T06:22:01.637Z,99.90
2019-03-24T06:24:29.195Z,99.90
2019-03-24T06:26:57.982Z,99.90
2019-03-24T06:29:25.615Z,99.90
2019-03-24T06:31:53.219Z,99.90
2019-03-24T06:34:21.077Z,99.90
2019-03-24T06:36:48.774Z,99.90
2019-03-24T06:39:16.654Z,99.90
2019-03-24T06:41:44.475Z,99.90
2019-03-24T06:44:12.065Z,99.90
2019-03-24T06:46:39.606Z,99.90
2019-03-24T06:49:07.467Z,99.90
2019-03-24T06:51:35.073Z,99.90
2019-03-24T06:54:02.722Z,99.90
2019-03-24T06:56:30.298Z,99.90
2019-03-24T06:58:57.885Z,99.90
2019-03-24T07:01:25.543Z,99.90
2019-03-24T07:03:53.330Z,99.90
2019-03-24T07:06:20.883Z,99.90
2019-03-24T07:08:48.506Z,99.90
2019-03-24T07:11:16.093Z,99.90
2019-03-24T07:13:43.704Z,99.90
2019-03-24T07:16:11.310Z,99.90
2019-03-24T07:18:38.870Z,99.90
2019-03-24T07:21:06.664Z,99.90
2019-03-24T07:23:34.234Z,99.90
2019-03-24T07:26:01.912Z,99.90
2019-03-24T07:28:29.651Z,99.90
2019-03-24T07:30:57.398Z,99.90
2019-03-24T07:33:25.284Z,99.90
2019-03-24T07:35:53.073Z,99.90
2019-03-24T07:38:20.813Z,99.90
2019-03-24T07:40:48.593Z,99.90
2019-03-24T07:43:16.406Z,99.90
2019-03-24T07:45:44.153Z,99.90
2019-03-24T07:48:19.023Z,99.90
2019-03-24T07:50:41.214Z,99.90
2019-03-24T07:53:11.072Z,99.90
2019-03-24T07:55:38.593Z,99.90
2019-03-24T07:58:06.078Z,99.90
2019-03-24T08:00:35.010Z,99.90
2019-03-24T08:03:02.850Z,99.90
2019-03-24T08:05:30.605Z,99.90
2019-03-24T08:07:58.292Z,99.90
2019-03-24T08:10:25.840Z,99.90
2019-03-24T08:12:53.681Z,99.90
2019-03-24T08:15:21.376Z,99.90
2019-03-24T08:17:49.223Z,99.90
2019-03-24T08:20:16.934Z,99.90
2019-03-24T08:22:44.490Z,99.90
2019-03-24T08:25:19.050Z,99.90
2019-03-24T08:27:49.721Z,99.90
2019-03-24T08:30:29.143Z,99.90
2019-03-24T08:32:56.719Z,99.90
2019-03-24T08:35:24.431Z,99.90
2019-03-24T08:37:52.342Z,99.90
2019-03-24T08:40:20.325Z,99.90
2019-03-24T08:42:47.979Z,99.90
2019-03-24T08:45:25.712Z,99.90
2019-03-24T08:47:53.467Z,99.90
2019-03-24T08:50:21.671Z,99.90
2019-03-24T08:52:49.196Z,99.90
2019-03-24T08:55:16.755Z,99.90
2019-03-24T08:57:44.332Z,99.90
2019-03-24T09:00:12.075Z,99.90
2019-03-24T09:02:39.629Z,99.90
2019-03-24T09:05:07.382Z,99.90
2019-03-24T09:07:35.177Z,99.90
2019-03-24T09:10:03.044Z,99.90
2019-03-24T09:12:31.323Z,99.90
2019-03-24T09:14:58.955Z,99.90
2019-03-24T09:17:26.660Z,99.90
2019-03-24T09:19:54.310Z,99.90
2019-03-24T09:22:22.147Z,99.90
2019-03-24T09:24:49.699Z,99.90
2019-03-24T09:27:17.546Z,99.90
2019-03-24T09:29:45.063Z,99.90
2019-03-24T09:32:12.716Z,99.90
2019-03-24T09:34:40.703Z,99.90
2019-03-24T09:37:10.415Z,99.90
2019-03-24T09:39:38.325Z,99.90
2019-03-24T09:42:06.029Z,99.90
2019-03-24T09:44:33.678Z,99.90
2019-03-24T09:47:01.222Z,99.90
2019-03-24T09:49:29.035Z,99.90
2019-03-24T09:51:56.582Z,99.90
2019-03-24T09:54:24.114Z,99.90
2019-03-24T09:56:51.706Z,99.90
2019-03-24T09:59:19.327Z,99.90
2019-03-24T10:01:47.026Z,99.90
2019-03-24T10:04:14.556Z,99.90
2019-03-24T10:06:42.322Z,99.90
2019-03-24T10:09:09.980Z,99.90
2019-03-24T10:11:37.675Z,99.90
2019-03-24T10:14:05.290Z,99.90
2019-03-24T10:16:32.891Z,99.90
2019-03-24T10:19:00.450Z,98.50
2019-03-24T10:21:28.184Z,98.00
2019-03-24T10:23:55.837Z,98.20
2019-03-24T10:26:23.540Z,98.20
2019-03-24T10:28:51.488Z,93.60
2019-03-24T10:31:19.033Z,91.80
2019-03-24T10:33:46.598Z,86.70
2019-03-24T10:36:14.120Z,79.80
2019-03-24T10:38:41.522Z,85.70
2019-03-24T10:41:09.654Z,86.20
2019-03-24T10:43:37.208Z,87.40
2019-03-24T10:46:04.826Z,81.40
2019-03-24T10:48:33.813Z,74.50
2019-03-24T10:51:01.710Z,69.30
2019-03-24T10:53:29.222Z,64.70
2019-03-24T10:55:56.694Z,65.00
2019-03-24T10:58:24.096Z,64.10
2019-03-24T11:00:51.613Z,60.20
2019-03-24T11:03:19.607Z,58.40
2019-03-24T11:05:47.033Z,53.80
2019-03-24T11:08:14.481Z,56.40
2019-03-24T11:10:41.981Z,50.90
2019-03-24T11:13:09.449Z,49.20
2019-03-24T11:15:36.875Z,48.70
2019-03-24T11:18:04.538Z,48.20
2019-03-24T11:20:32.322Z,47.10
2019-03-24T11:22:59.733Z,42.80
2019-03-24T11:25:27.246Z,44.30
2019-03-24T11:27:55.761Z,42.50
2019-03-24T11:30:23.292Z,43.50
2019-03-24T11:32:50.971Z,44.30
2019-03-24T11:35:18.390Z,43.20
2019-03-24T11:37:45.826Z,47.00
2019-03-24T11:40:13.573Z,44.70
2019-03-24T11:42:40.974Z,45.80
2019-03-24T11:45:09.298Z,43.30
2019-03-24T11:47:37.150Z,42.20
2019-03-24T11:50:05.547Z,43.20
2019-03-24T11:52:32.975Z,39.80
2019-03-24T11:55:00.501Z,39.40
2019-03-24T11:57:28.118Z,38.20
2019-03-24T11:59:55.553Z,40.10
2019-03-24T12:02:23.078Z,40.00
2019-03-24T12:04:50.549Z,38.60
2019-03-24T12:07:18.078Z,39.80
2019-03-24T12:09:45.504Z,39.80
2019-03-24T12:12:12.914Z,38.80
2019-03-24T12:14:40.358Z,40.30
2019-03-24T12:17:07.873Z,37.90
2019-03-24T12:19:35.289Z,38.00
2019-03-24T12:22:02.935Z,39.20
2019-03-24T12:24:30.348Z,37.90
2019-03-24T12:26:57.956Z,38.70
2019-03-24T12:29:25.618Z,37.70
2019-03-24T12:31:53.105Z,38.20
2019-03-24T12:34:20.512Z,37.60
2019-03-24T12:36:47.926Z,36.30
2019-03-24T12:39:15.619Z,35.60
2019-03-24T12:41:43.024Z,34.40
2019-03-24T12:44:11.057Z,32.90
2019-03-24T12:46:38.515Z,34.30
2019-03-24T12:49:05.922Z,34.10
2019-03-24T12:51:33.440Z,33.50
2019-03-24T12:54:00.853Z,34.50
2019-03-24T12:56:28.402Z,34.40
2019-03-24T12:58:55.943Z,36.20
2019-03-24T13:01:23.363Z,37.80
2019-03-24T13:03:50.941Z,38.70
2019-03-24T13:06:18.326Z,39.70
2019-03-24T13:08:45.858Z,40.70
2019-03-24T13:11:13.262Z,40.00
2019-03-24T13:13:40.662Z,39.50
2019-03-24T13:16:09.066Z,39.90
2019-03-24T13:18:36.591Z,41.10
2019-03-24T13:21:04.107Z,38.00
2019-03-24T13:23:31.643Z,35.00
2019-03-24T13:25:59.066Z,34.00
2019-03-24T13:28:26.472Z,35.50
2019-03-24T13:30:53.992Z,32.30
2019-03-24T13:33:21.393Z,30.80
2019-03-24T13:35:54.858Z,32.80
2019-03-24T13:38:22.245Z,31.50
2019-03-24T13:40:49.701Z,29.90
2019-03-24T13:43:17.106Z,31.70
2019-03-24T13:45:44.626Z,32.50
2019-03-24T13:48:12.103Z,29.70
2019-03-24T13:50:39.621Z,29.40
2019-03-24T13:53:08.151Z,30.90
2019-03-24T13:55:35.558Z,28.90
2019-03-24T13:58:05.355Z,28.90
2019-03-24T14:00:33.007Z,28.40
2019-03-24T14:03:00.515Z,29.00
2019-03-24T14:05:27.917Z,29.10
2019-03-24T14:07:56.473Z,26.20
2019-03-24T14:10:23.889Z,27.50
2019-03-24T14:12:51.273Z,28.40
2019-03-24T14:15:18.782Z,28.00
2019-03-24T14:17:46.194Z,27.70
2019-03-24T14:20:13.937Z,24.00
2019-03-24T14:22:41.455Z,26.00
2019-03-24T14:25:09.074Z,25.20
2019-03-24T14:27:36.526Z,26.30
2019-03-24T14:30:04.989Z,26.20
2019-03-24T14:32:32.417Z,27.30
2019-03-24T14:34:59.898Z,26.60
2019-03-24T14:37:27.579Z,25.30
2019-03-24T14:39:55.010Z,25.50
2019-03-24T14:42:22.440Z,25.50
2019-03-24T14:44:49.849Z,27.10
2019-03-24T14:47:18.369Z,27.30
2019-03-24T14:49:45.877Z,26.10
2019-03-24T14:52:13.561Z,26.20
2019-03-24T14:54:40.969Z,26.90
2019-03-24T14:57:08.512Z,26.80
2019-03-24T14:59:35.946Z,25.90
2019-03-24T15:02:03.558Z,26.00
2019-03-24T15:04:30.988Z,28.40
2019-03-24T15:06:58.513Z,28.20
2019-03-24T15:09:25.959Z,28.80
2019-03-24T15:11:53.483Z,27.90
2019-03-24T15:14:20.971Z,28.20
2019-03-24T15:16:48.513Z,29.30
2019-03-24T15:19:15.954Z,29.90
2019-03-24T15:21:43.519Z,30.40
2019-03-24T15:24:11.041Z,29.80
2019-03-24T15:26:38.503Z,30.10
2019-03-24T15:29:05.889Z,31.10
2019-03-24T15:31:34.398Z,31.40
2019-03-24T15:34:02.957Z,31.10
2019-03-24T15:36:30.390Z,30.90
2019-03-24T15:38:57.803Z,31.00
2019-03-24T15:41:26.314Z,32.70
2019-03-24T15:43:53.763Z,33.50
2019-03-24T15:46:21.195Z,32.00
2019-03-24T15:48:50.199Z,32.50
2019-03-24T15:51:17.915Z,33.20
2019-03-24T15:53:45.366Z,34.10
2019-03-24T15:56:12.811Z,36.60
2019-03-24T15:58:40.213Z,34.70
2019-03-24T16:01:07.741Z,33.60
2019-03-24T16:03:35.212Z,36.40
2019-03-24T16:06:02.958Z,36.80
2019-03-24T16:08:30.550Z,38.80
2019-03-24T16:10:57.995Z,42.00
2019-03-24T16:13:25.585Z,44.80
2019-03-24T16:15:53.145Z,47.60
2019-03-24T16:18:20.676Z,49.10
2019-03-24T16:20:48.097Z,50.90
2019-03-24T16:23:15.584Z,52.60
2019-03-24T16:25:43.231Z,54.10
2019-03-24T16:28:10.923Z,55.50
2019-03-24T16:30:38.539Z,59.10
2019-03-24T16:33:06.077Z,61.60
2019-03-24T16:35:33.528Z,60.70
2019-03-24T16:38:01.186Z,60.70
2019-03-24T16:40:28.622Z,59.40
2019-03-24T16:42:56.533Z,59.50
2019-03-24T16:45:24.298Z,59.60
2019-03-24T16:47:51.736Z,60.60
2019-03-24T16:50:19.239Z,60.90
2019-03-24T16:52:46.649Z,60.60
2019-03-24T16:55:14.083Z,62.50
2019-03-24T16:57:41.486Z,64.10
2019-03-24T17:00:09.360Z,64.20
2019-03-24T17:02:36.974Z,63.40
2019-03-24T17:05:04.878Z,63.50
2019-03-24T17:07:32.490Z,63.20
2019-03-24T17:09:59.897Z,63.20
2019-03-24T17:12:27.604Z,65.40
2019-03-24T17:14:55.263Z,65.20
2019-03-24T17:17:22.770Z,66.70
2019-03-24T17:19:50.256Z,68.80
2019-03-24T17:22:17.695Z,70.90
2019-03-24T17:24:45.260Z,73.00
2019-03-24T17:27:12.673Z,74.30
2019-03-24T17:29:40.089Z,77.20
2019-03-24T17:32:07.498Z,77.90
2019-03-24T17:34:34.972Z,78.40
2019-03-24T17:37:02.398Z,80.70
2019-03-24T17:39:29.857Z,83.90
2019-03-24T17:41:57.293Z,84.10
2019-03-24T17:44:24.725Z,86.80
2019-03-24T17:46:52.160Z,86.90
2019-03-24T17:49:19.685Z,88.50
2019-03-24T17:51:47.217Z,88.90
2019-03-24T17:54:14.642Z,90.20
2019-03-24T17:56:42.666Z,90.70
2019-03-24T17:59:14.367Z,90.10
2019-03-24T18:01:41.510Z,90.80
2019-03-24T18:04:08.946Z,91.50
2019-03-24T18:06:36.474Z,92.00
2019-03-24T18:09:06.672Z,92.90
2019-03-24T18:11:35.224Z,94.20
2019-03-24T18:14:02.868Z,95.20
2019-03-24T18:16:30.488Z,95.60
2019-03-24T18:18:57.893Z,96.10
2019-03-24T18:21:25.439Z,95.50
2019-03-24T18:23:52.847Z,96.40
2019-03-24T18:26:20.376Z,97.00
2019-03-24T18:28:47.951Z,96.70
2019-03-24T18:31:15.438Z,96.30
2019-03-24T18:33:42.993Z,97.40
2019-03-24T18:36:10.568Z,96.90
2019-03-24T18:38:38.000Z,97.30
2019-03-24T18:41:05.680Z,97.90
2019-03-24T18:43:33.231Z,98.00
2019-03-24T18:46:01.035Z,98.50
2019-03-24T18:48:28.473Z,98.50
2019-03-24T18:50:55.890Z,98.70
2019-03-24T18:53:23.313Z,98.80
2019-03-24T18:55:50.851Z,98.90
2019-03-24T18:58:18.285Z,99.10
2019-03-24T19:00:45.731Z,99.30
2019-03-24T19:03:13.197Z,99.50
2019-03-24T19:05:40.713Z,99.90
2019-03-24T19:08:08.570Z,99.90
2019-03-24T19:10:36.039Z,99.90
2019-03-24T19:13:04.061Z,99.90
2019-03-24T19:15:31.521Z,99.90
2019-03-24T19:17:59.106Z,99.90
2019-03-24T19:20:26.651Z,99.90
2019-03-24T19:22:54.187Z,99.90
2019-03-24T19:25:21.749Z,99.90
2019-03-24T19:27:49.173Z,99.90
2019-03-24T19:30:17.585Z,99.90
2019-03-24T19:32:45.470Z,99.90
2019-03-24T19:35:14.199Z,99.90
2019-03-24T19:37:43.754Z,99.90
2019-03-24T19:40:26.515Z,99.90
2019-03-24T19:42:54.229Z,99.90
2019-03-24T19:45:21.680Z,99.90
2019-03-24T19:47:49.214Z,99.90
2019-03-24T19:50:16.739Z,99.90
2019-03-24T19:52:45.014Z,99.90
2019-03-24T19:55:12.914Z,99.90
2019-03-24T19:57:40.350Z,99.90
2019-03-24T20:00:08.061Z,99.90
2019-03-24T20:02:37.492Z,99.90
2019-03-24T20:05:05.001Z,99.90
2019-03-24T20:07:32.650Z,99.90
2019-03-24T20:10:00.319Z,99.90
2019-03-24T20:12:27.926Z,99.90
2019-03-24T20:14:55.573Z,99.90
2019-03-24T20:17:23.112Z,99.90
2019-03-24T20:19:50.828Z,99.90
2019-03-24T20:22:18.315Z,99.90
2019-03-24T20:24:45.813Z,99.90
2019-03-24T20:27:13.347Z,99.90
2019-03-24T20:29:40.974Z,99.90
2019-03-24T20:32:08.389Z,99.90
2019-03-24T20:34:35.825Z,99.90
2019-03-24T20:37:04.344Z,99.90
2019-03-24T20:39:32.900Z,99.90
2019-03-24T20:42:00.477Z,99.90
2019-03-24T20:44:27.898Z,99.90
2019-03-24T20:46:55.342Z,99.90
2019-03-24T20:49:22.855Z,99.90
2019-03-24T20:51:50.325Z,99.90
2019-03-24T20:54:18.898Z,99.90
2019-03-24T20:56:46.374Z,99.90
2019-03-24T20:59:13.874Z,99.90
2019-03-24T21:01:41.403Z,99.90
2019-03-24T21:04:08.931Z,99.90
2019-03-24T21:06:36.526Z,99.90
2019-03-24T21:09:06.892Z,99.90
2019-03-24T21:11:34.649Z,99.90
2019-03-24T21:14:02.562Z,99.90
2019-03-24T21:16:30.026Z,99.90
2019-03-24T21:18:57.589Z,99.90
2019-03-24T21:21:25.285Z,99.90
2019-03-24T21:23:53.025Z,99.90
2019-03-24T21:26:20.587Z,99.90
2019-03-24T21:28:48.342Z,99.90
2019-03-24T21:31:15.759Z,99.90
2019-03-24T21:33:43.233Z,99.90
2019-03-24T21:36:11.097Z,99.90
2019-03-24T21:38:38.525Z,99.90
2019-03-24T21:41:06.307Z,99.90
2019-03-24T21:43:34.243Z,99.90
2019-03-24T21:46:02.038Z,99.90
2019-03-24T21:48:29.482Z,99.90
2019-03-24T21:50:57.238Z,99.90
2019-03-24T21:53:24.952Z,99.90
2019-03-24T21:55:52.419Z,99.90
2019-03-24T21:58:19.866Z,99.90
2019-03-24T22:00:47.445Z,99.90
2019-03-24T22:03:14.862Z,99.90
2019-03-24T22:05:42.276Z,99.90
2019-03-24T22:08:09.703Z,99.90
2019-03-24T22:10:37.514Z,99.90
2019-03-24T22:13:05.222Z,99.90
2019-03-24T22:15:32.869Z,99.90
2019-03-24T22:18:00.520Z,99.90
2019-03-24T22:20:27.989Z,99.90
2019-03-24T22:22:56.493Z,99.90
2019-03-24T22:25:24.262Z,99.90
2019-03-24T22:27:52.054Z,99.90
2019-03-24T22:30:20.342Z,99.90
2019-03-24T22:32:48.067Z,99.90
2019-03-24T22:35:15.991Z,99.90
2019-03-24T22:37:43.656Z,99.90
2019-03-24T22:40:11.336Z,99.90
2019-03-24T22:42:38.924Z,99.90
2019-03-24T22:45:06.712Z,99.90
2019-03-24T22:47:34.206Z,99.90
2019-03-24T22:50:01.761Z,99.90
2019-03-24T22:52:29.158Z,99.90
2019-03-24T22:54:56.809Z,99.90
2019-03-24T22:57:25.537Z,99.90
2019-03-24T22:59:53.032Z,99.90
2019-03-24T23:02:20.704Z,99.90
2019-03-24T23:04:48.276Z,99.90
2019-03-24T23:07:15.904Z,99.90
2019-03-24T23:09:43.725Z,99.90
2019-03-24T23:12:11.167Z,99.90
2019-03-24T23:14:38.609Z,99.90
2019-03-24T23:17:06.039Z,99.90
2019-03-24T23:19:33.482Z,99.90
2019-03-24T23:22:01.034Z,99.90
2019-03-24T23:24:28.546Z,99.90
2019-03-24T23:26:57.300Z,99.90
2019-03-24T23:29:24.867Z,99.90
2019-03-24T23:31:52.416Z,99.90
2019-03-24T23:34:20.054Z,99.90
2019-03-24T23:36:47.482Z,99.90
2019-03-24T23:39:14.918Z,99.90
2019-03-24T23:41:42.486Z,99.90
2019-03-24T23:44:10.002Z,99.90
2019-03-24T23:46:37.636Z,99.90
2019-03-24T23:49:05.059Z,99.90
2019-03-24T23:51:32.708Z,99.90
2019-03-24T23:54:00.145Z,99.90
2019-03-24T23:56:27.613Z,99.90
